Time;durP1;ratioP1;P1;durP2;ratioP2;P2;SDS_P1;SDS_P2;PMS_P1;PMS_P2;Temp;Humidity;BMP_temperature;BMP_pressure;BME280_temperature;BME280_humidity;BME280_pressure;Samples;Min_cycle;Max_cycle;Signal;HPM_P1;HPM_P2
2023/06/20 00:00:15;;;;;;;15.13;9.70;;;19.10;99.90;;;;;;5029685;28;20038;-78
2023/06/20 00:02:40;;;;;;;12.30;9.73;;;19.00;99.90;;;;;;5029375;28;20515;-78
2023/06/20 00:05:06;;;;;;;11.95;9.50;;;19.00;99.90;;;;;;5029987;28;20037;-78
2023/06/20 00:07:33;;;;;;;12.38;9.80;;;19.00;99.90;;;;;;5025968;28;20052;-77
2023/06/20 00:09:58;;;;;;;13.65;9.95;;;19.00;99.90;;;;;;5029571;28;20167;-77
2023/06/20 00:12:24;;;;;;;12.05;9.55;;;18.90;99.90;;;;;;5045810;28;20116;-78
2023/06/20 00:14:49;;;;;;;12.18;8.93;;;18.90;99.90;;;;;;5029349;28;20493;-78
2023/06/20 00:17:15;;;;;;;12.52;9.43;;;18.80;99.90;;;;;;5029637;28;20508;-77
2023/06/20 00:19:41;;;;;;;13.23;10.07;;;18.80;99.90;;;;;;5029324;28;20065;-77
2023/06/20 00:22:07;;;;;;;13.30;10.13;;;18.80;99.90;;;;;;5030594;28;20025;-77
2023/06/20 00:24:32;;;;;;;13.13;10.30;;;18.80;99.90;;;;;;5033296;28;20037;-77
2023/06/20 00:27:00;;;;;;;13.30;9.95;;;18.70;99.90;;;;;;5033162;28;20041;-77
2023/06/20 00:29:25;;;;;;;13.07;9.13;;;18.70;99.90;;;;;;5033164;28;20116;-78
2023/06/20 00:31:51;;;;;;;13.02;9.93;;;18.70;99.90;;;;;;5032760;28;20463;-77
2023/06/20 00:34:16;;;;;;;12.75;9.55;;;18.70;99.90;;;;;;5048251;28;20037;-78
2023/06/20 00:36:42;;;;;;;10.32;9.00;;;18.60;99.90;;;;;;5028564;28;20034;-77
2023/06/20 00:39:07;;;;;;;12.43;9.88;;;18.60;99.90;;;;;;5023431;28;20030;-79
2023/06/20 00:41:33;;;;;;;12.27;9.75;;;18.50;99.90;;;;;;5021434;28;20034;-77
2023/06/20 00:44:03;;;;;;;11.95;9.85;;;18.50;99.90;;;;;;5031383;28;20184;-77
2023/06/20 00:46:31;;;;;;;12.43;10.02;;;18.50;99.90;;;;;;5033420;28;20112;-77
2023/06/20 00:49:03;;;;;;;12.40;10.10;;;18.50;99.90;;;;;;5032211;28;20101;-77
2023/06/20 00:51:29;;;;;;;14.40;10.70;;;18.50;99.90;;;;;;5015656;28;20052;-78
2023/06/20 00:53:56;;;;;;;13.95;10.20;;;18.50;99.90;;;;;;5030762;28;20033;-78
2023/06/20 00:56:26;;;;;;;12.82;9.73;;;18.50;99.90;;;;;;5033273;28;20121;-77
2023/06/20 00:58:52;;;;;;;15.38;10.27;;;18.50;99.90;;;;;;5032009;28;20049;-77
2023/06/20 01:01:19;;;;;;;14.95;9.98;;;18.50;99.90;;;;;;5031657;28;20515;-79
2023/06/20 01:03:46;;;;;;;16.02;10.63;;;18.50;99.90;;;;;;5031481;28;20508;-78
2023/06/20 01:06:27;;;;;;;14.57;10.77;;;18.40;99.90;;;;;;5032237;28;20049;-77
2023/06/20 01:09:08;;;;;;;13.82;10.88;;;18.40;99.90;;;;;;5019865;28;20045;-78
2023/06/20 01:11:44;;;;;;;13.20;10.88;;;18.40;99.90;;;;;;5029522;28;20037;-77
2023/06/20 01:14:44;;;;;;;14.82;10.50;;;18.40;99.90;;;;;;5032402;28;20045;-78
2023/06/20 01:17:22;;;;;;;13.73;11.05;;;18.40;99.90;;;;;;5030629;28;20540;-78
2023/06/20 01:20:08;;;;;;;13.00;10.75;;;18.40;99.90;;;;;;5033867;28;20053;-78
2023/06/20 01:22:43;;;;;;;14.23;10.88;;;18.30;99.90;;;;;;5032261;28;20452;-78
2023/06/20 01:25:23;;;;;;;12.73;10.32;;;18.30;99.90;;;;;;5032699;28;20318;-79
2023/06/20 01:28:03;;;;;;;12.00;9.98;;;18.30;99.90;;;;;;5048415;28;20037;-79
2023/06/20 01:30:47;;;;;;;10.93;9.73;;;18.30;99.90;;;;;;5032592;28;20045;-78
2023/06/20 01:33:17;;;;;;;10.63;9.02;;;18.30;99.90;;;;;;5031552;28;20037;-79
2023/06/20 01:35:46;;;;;;;13.45;9.65;;;18.30;99.90;;;;;;5031500;28;20077;-78
2023/06/20 01:38:13;;;;;;;12.30;8.85;;;18.30;99.90;;;;;;5048042;28;20126;-78
2023/06/20 01:40:41;;;;;;;10.23;8.80;;;18.30;99.90;;;;;;5048806;28;20080;-78
2023/06/20 01:43:07;;;;;;;12.05;8.60;;;18.30;99.90;;;;;;5031988;28;20136;-79
2023/06/20 01:45:38;;;;;;;10.48;8.40;;;18.30;99.90;;;;;;5048273;28;20077;-80
2023/06/20 01:48:06;;;;;;;12.68;8.30;;;18.20;99.90;;;;;;5031227;28;20049;-78
2023/06/20 01:50:33;;;;;;;10.43;8.18;;;18.20;99.90;;;;;;5030549;28;20045;-78
2023/06/20 01:53:02;;;;;;;12.05;8.07;;;18.20;99.90;;;;;;5031709;28;20515;-78
2023/06/20 01:55:29;;;;;;;12.35;8.82;;;18.10;99.90;;;;;;5048579;28;20044;-78
2023/06/20 01:57:57;;;;;;;9.98;7.88;;;18.10;99.90;;;;;;5031835;28;20040;-78
2023/06/20 02:00:24;;;;;;;9.60;8.32;;;18.10;99.90;;;;;;5031956;28;20087;-78
2023/06/20 02:02:50;;;;;;;12.80;8.52;;;18.10;99.90;;;;;;5029970;28;20396;-78
2023/06/20 02:05:17;;;;;;;12.30;8.40;;;18.00;99.90;;;;;;5029454;28;20045;-78
2023/06/20 02:07:44;;;;;;;10.48;7.90;;;18.10;99.90;;;;;;5002429;28;20041;-78
2023/06/20 02:10:13;;;;;;;10.65;8.63;;;18.00;99.90;;;;;;5030589;28;20527;-78
2023/06/20 02:12:39;;;;;;;11.75;8.73;;;18.00;99.90;;;;;;5029883;28;20038;-79
2023/06/20 02:15:06;;;;;;;12.90;8.68;;;18.00;99.90;;;;;;5030419;28;20049;-77
2023/06/20 02:17:33;;;;;;;11.10;8.63;;;18.00;99.90;;;;;;5030395;28;20061;-79
2023/06/20 02:19:59;;;;;;;11.77;7.85;;;18.00;99.90;;;;;;5030436;28;20489;-78
2023/06/20 02:22:26;;;;;;;10.82;8.52;;;18.00;99.90;;;;;;5030499;28;20091;-78
2023/06/20 02:24:55;;;;;;;11.95;8.45;;;18.10;99.90;;;;;;5047965;28;20033;-80
2023/06/20 02:27:22;;;;;;;10.07;8.57;;;18.00;99.90;;;;;;5031361;28;20500;-79
2023/06/20 02:29:50;;;;;;;12.48;8.48;;;18.00;99.90;;;;;;5028372;28;20073;-78
2023/06/20 02:32:19;;;;;;;14.73;9.18;;;18.00;99.90;;;;;;5030423;28;20089;-78
2023/06/20 02:34:47;;;;;;;10.93;8.07;;;18.00;99.90;;;;;;5022624;28;20440;-77
2023/06/20 02:37:14;;;;;;;13.57;7.85;;;18.00;99.90;;;;;;5030085;28;20029;-78
2023/06/20 02:39:40;;;;;;;11.27;8.27;;;18.00;99.90;;;;;;5030695;28;20095;-77
2023/06/20 02:42:05;;;;;;;14.15;8.57;;;18.00;99.90;;;;;;5030402;28;20042;-78
2023/06/20 02:44:31;;;;;;;12.82;8.05;;;18.00;99.90;;;;;;5030101;28;20508;-77
2023/06/20 02:47:17;;;;;;;11.48;8.70;;;18.00;99.90;;;;;;5047247;28;20495;-77
2023/06/20 02:49:50;;;;;;;11.43;8.60;;;18.00;99.90;;;;;;5047481;28;20049;-78
2023/06/20 02:52:42;;;;;;;11.13;7.95;;;18.00;99.90;;;;;;5047217;28;20443;-77
2023/06/20 02:55:26;;;;;;;12.10;8.25;;;18.00;99.90;;;;;;5047475;28;20045;-78
2023/06/20 02:57:55;;;;;;;12.35;8.77;;;18.00;99.90;;;;;;5030758;28;20048;-79
2023/06/20 03:00:23;;;;;;;14.20;8.88;;;18.00;99.90;;;;;;5030696;28;20044;-78
2023/06/20 03:03:00;;;;;;;11.35;8.30;;;18.00;99.90;;;;;;5030390;28;20039;-79
2023/06/20 03:05:30;;;;;;;12.30;8.38;;;18.00;99.90;;;;;;5047551;28;20080;-79
2023/06/20 03:07:56;;;;;;;13.02;8.85;;;17.90;99.90;;;;;;5030700;28;20079;-77
2023/06/20 03:10:23;;;;;;;12.52;8.90;;;17.90;99.90;;;;;;5047394;28;20045;-78
2023/06/20 03:12:50;;;;;;;11.90;8.32;;;17.90;99.90;;;;;;5045886;28;20041;-78
2023/06/20 03:15:15;;;;;;;11.32;8.52;;;17.90;99.90;;;;;;5022545;28;20044;-79
2023/06/20 03:17:41;;;;;;;10.40;8.77;;;17.90;99.90;;;;;;5028341;28;20033;-79
2023/06/20 03:20:08;;;;;;;13.63;8.98;;;17.80;99.90;;;;;;5030503;28;20124;-78
2023/06/20 03:22:34;;;;;;;10.80;9.30;;;17.90;99.90;;;;;;5029923;28;20532;-78
2023/06/20 03:25:00;;;;;;;13.68;9.07;;;17.90;99.90;;;;;;5046987;28;20029;-79
2023/06/20 03:27:25;;;;;;;16.35;9.77;;;17.90;99.90;;;;;;5046940;28;20041;-78
2023/06/20 03:29:51;;;;;;;12.50;9.45;;;17.90;99.90;;;;;;5030109;28;20033;-79
2023/06/20 03:32:16;;;;;;;12.50;9.95;;;17.80;99.90;;;;;;5030177;28;20417;-78
2023/06/20 03:34:42;;;;;;;14.68;10.20;;;17.80;99.90;;;;;;5046966;28;20053;-77
2023/06/20 03:37:07;;;;;;;14.88;9.07;;;17.80;99.90;;;;;;5046967;28;20033;-78
2023/06/20 03:39:33;;;;;;;13.65;10.27;;;17.80;99.90;;;;;;5046624;28;20037;-80
2023/06/20 03:41:58;;;;;;;13.55;9.38;;;17.80;99.90;;;;;;5046435;28;20180;-78
2023/06/20 03:44:24;;;;;;;11.88;10.48;;;17.80;99.90;;;;;;5030309;28;20042;-79
2023/06/20 03:46:49;;;;;;;14.63;10.50;;;17.80;99.90;;;;;;5046734;28;20370;-79
2023/06/20 03:49:15;;;;;;;13.10;9.93;;;17.80;99.90;;;;;;5030494;28;20471;-79
2023/06/20 03:51:40;;;;;;;14.48;10.80;;;17.80;99.90;;;;;;5046270;28;20124;-78
2023/06/20 03:54:06;;;;;;;15.02;10.48;;;17.80;99.90;;;;;;5030002;28;20061;-78
2023/06/20 03:56:32;;;;;;;14.02;10.45;;;17.80;99.90;;;;;;5046334;28;20034;-78
2023/06/20 03:58:57;;;;;;;16.45;10.85;;;17.80;99.90;;;;;;5030053;28;20087;-79
2023/06/20 04:01:24;;;;;;;13.65;10.40;;;17.80;99.90;;;;;;5046311;28;20037;-79
2023/06/20 04:03:52;;;;;;;15.32;10.38;;;17.80;99.90;;;;;;5046296;28;20505;-79
2023/06/20 04:06:18;;;;;;;14.15;11.38;;;17.80;99.90;;;;;;5029118;28;20048;-79
2023/06/20 04:08:45;;;;;;;14.27;10.50;;;17.80;99.90;;;;;;5046580;28;20037;-79
2023/06/20 04:11:11;;;;;;;15.60;10.93;;;17.90;99.90;;;;;;5046641;28;20037;-79
2023/06/20 04:13:36;;;;;;;13.10;10.32;;;17.90;99.90;;;;;;5030105;28;20586;-78
2023/06/20 04:16:02;;;;;;;13.80;10.60;;;17.90;99.90;;;;;;5027667;28;20038;-80
2023/06/20 04:18:27;;;;;;;15.05;10.57;;;17.90;99.90;;;;;;5027111;28;20037;-79
2023/06/20 04:20:53;;;;;;;18.10;11.75;;;17.90;99.90;;;;;;5022331;28;20121;-80
2023/06/20 04:23:18;;;;;;;13.60;10.85;;;18.00;99.90;;;;;;5045732;28;20048;-80
2023/06/20 04:25:44;;;;;;;11.93;10.55;;;18.00;99.90;;;;;;5028930;28;20037;-78
2023/06/20 04:28:09;;;;;;;13.40;10.63;;;18.00;99.90;;;;;;5027692;28;20034;-79
2023/06/20 04:30:35;;;;;;;13.75;10.10;;;18.00;99.90;;;;;;5028437;28;20042;-79
2023/06/20 04:33:00;;;;;;;11.35;9.80;;;18.10;99.90;;;;;;5028449;28;20045;-79
2023/06/20 04:35:26;;;;;;;14.60;10.50;;;18.10;99.90;;;;;;5046005;28;20045;-79
2023/06/20 04:37:51;;;;;;;15.00;10.30;;;18.10;99.90;;;;;;5028791;28;20501;-78
2023/06/20 04:40:17;;;;;;;12.95;10.23;;;18.20;99.90;;;;;;5029387;28;20113;-78
2023/06/20 04:42:45;;;;;;;13.68;10.00;;;18.20;99.90;;;;;;5027193;28;20065;-77
2023/06/20 04:45:11;;;;;;;12.60;10.82;;;18.20;99.90;;;;;;5024127;28;20099;-78
2023/06/20 04:47:37;;;;;;;12.90;10.35;;;18.20;99.90;;;;;;5026115;28;20060;-78
2023/06/20 04:50:03;;;;;;;13.60;10.52;;;18.30;99.90;;;;;;5023992;28;20042;-79
2023/06/20 04:52:30;;;;;;;13.68;10.05;;;18.30;99.90;;;;;;5018131;28;20046;-79
2023/06/20 04:55:02;;;;;;;13.00;9.90;;;18.30;99.90;;;;;;5016887;28;20069;-78
2023/06/20 04:57:31;;;;;;;15.20;9.65;;;18.30;99.90;;;;;;5023925;28;20044;-78
2023/06/20 04:59:57;;;;;;;13.93;9.27;;;18.30;99.90;;;;;;5022624;28;20042;-81
2023/06/20 05:02:23;;;;;;;15.35;9.60;;;18.40;99.90;;;;;;5041522;28;20029;-77
2023/06/20 05:04:49;;;;;;;14.38;9.45;;;18.40;99.90;;;;;;5022547;28;20517;-78
2023/06/20 05:07:15;;;;;;;12.70;9.55;;;18.40;99.90;;;;;;5025260;28;20061;-79
2023/06/20 05:09:40;;;;;;;14.20;9.75;;;18.40;99.90;;;;;;5025259;28;20042;-77
2023/06/20 05:12:06;;;;;;;12.95;9.13;;;18.40;99.90;;;;;;5027091;28;20037;-78
2023/06/20 05:14:32;;;;;;;10.77;8.55;;;18.40;99.90;;;;;;5032702;28;20052;-78
2023/06/20 05:16:57;;;;;;;12.50;8.52;;;18.40;99.90;;;;;;5024254;28;20405;-78
2023/06/20 05:19:23;;;;;;;13.13;8.77;;;18.50;99.90;;;;;;5023206;28;20037;-78
2023/06/20 05:21:48;;;;;;;10.75;8.98;;;18.50;99.90;;;;;;5002645;28;20037;-78
2023/06/20 05:24:14;;;;;;;11.85;8.68;;;18.60;99.90;;;;;;5024023;28;20034;-79
2023/06/20 05:26:40;;;;;;;10.57;8.50;;;18.60;99.90;;;;;;5023816;28;20421;-79
2023/06/20 05:29:05;;;;;;;14.50;8.82;;;18.60;99.90;;;;;;5024401;28;20037;-79
2023/06/20 05:31:31;;;;;;;12.98;9.45;;;18.70;99.90;;;;;;5025657;28;20390;-79
2023/06/20 05:33:56;;;;;;;12.32;8.35;;;18.70;99.90;;;;;;5029037;28;20133;-79
2023/06/20 05:36:22;;;;;;;11.13;8.40;;;18.70;99.90;;;;;;5026166;28;20037;-79
2023/06/20 05:38:48;;;;;;;12.35;8.70;;;18.80;99.90;;;;;;5024195;28;20040;-79
2023/06/20 05:41:14;;;;;;;10.38;8.35;;;18.80;99.90;;;;;;5029857;28;20033;-78
2023/06/20 05:43:40;;;;;;;11.00;8.00;;;18.80;99.90;;;;;;5041580;28;20459;-78
2023/06/20 05:46:05;;;;;;;12.68;8.35;;;18.80;99.90;;;;;;5028760;28;20137;-81
2023/06/20 05:48:32;;;;;;;11.63;9.00;;;18.80;99.90;;;;;;5031805;28;20527;-78
2023/06/20 05:51:00;;;;;;;12.38;8.68;;;18.80;99.90;;;;;;5022615;28;20037;-78
2023/06/20 05:53:28;;;;;;;13.13;8.77;;;18.90;99.90;;;;;;5033294;28;20037;-80
2023/06/20 05:55:54;;;;;;;13.15;9.13;;;18.80;99.90;;;;;;5021962;28;20049;-79
2023/06/20 05:58:20;;;;;;;12.32;9.40;;;18.80;99.90;;;;;;5044867;28;20488;-78
2023/06/20 06:00:46;;;;;;;10.90;9.02;;;18.90;99.90;;;;;;5026804;28;20113;-81
2023/06/20 06:03:14;;;;;;;11.70;8.50;;;18.90;99.90;;;;;;5028851;28;20487;-78
2023/06/20 06:05:40;;;;;;;12.55;8.45;;;18.90;99.90;;;;;;5024298;28;20034;-79
2023/06/20 06:08:06;;;;;;;12.70;9.20;;;18.90;99.90;;;;;;5024965;28;20060;-79
2023/06/20 06:10:32;;;;;;;11.90;9.07;;;18.90;99.90;;;;;;5026947;28;20045;-78
2023/06/20 06:12:58;;;;;;;10.85;9.25;;;19.00;99.90;;;;;;5024711;28;20038;-80
2023/06/20 06:15:23;;;;;;;12.60;8.93;;;19.00;99.90;;;;;;5029844;28;20488;-78
2023/06/20 06:17:49;;;;;;;12.98;8.85;;;19.00;99.90;;;;;;5032591;28;20057;-79
2023/06/20 06:20:19;;;;;;;12.90;9.18;;;19.00;99.90;;;;;;5030777;28;20037;-78
2023/06/20 06:22:47;;;;;;;13.57;9.60;;;19.00;99.90;;;;;;5031476;28;20026;-79
2023/06/20 06:25:13;;;;;;;12.68;9.52;;;19.10;99.90;;;;;;5046043;28;20479;-78
2023/06/20 06:27:38;;;;;;;13.60;9.75;;;19.10;99.90;;;;;;5028023;28;20077;-78
2023/06/20 06:30:05;;;;;;;11.77;10.00;;;19.20;99.90;;;;;;5037068;28;20123;-79
2023/06/20 06:32:34;;;;;;;12.23;9.90;;;19.30;99.90;;;;;;5037470;28;20485;-79
2023/06/20 06:35:00;;;;;;;12.90;10.07;;;19.30;99.90;;;;;;5020053;28;20516;-77
2023/06/20 06:37:27;;;;;;;11.80;9.90;;;19.40;99.90;;;;;;5026547;28;20224;-79
2023/06/20 06:39:55;;;;;;;12.73;9.68;;;19.40;99.90;;;;;;5020382;28;20104;-78
2023/06/20 06:42:21;;;;;;;14.68;10.25;;;19.60;99.90;;;;;;5019785;28;20037;-78
2023/06/20 06:44:46;;;;;;;10.68;9.57;;;19.70;99.90;;;;;;5031006;28;20041;-80
2023/06/20 06:47:12;;;;;;;11.07;9.27;;;19.70;99.90;;;;;;5024530;28;20052;-80
2023/06/20 06:49:37;;;;;;;12.55;10.38;;;19.80;99.90;;;;;;5020805;28;20038;-80
2023/06/20 06:52:03;;;;;;;13.25;10.80;;;19.90;99.90;;;;;;5018776;28;20065;-79
2023/06/20 06:54:29;;;;;;;12.45;9.77;;;20.00;99.90;;;;;;5014183;28;20120;-79
2023/06/20 06:56:54;;;;;;;10.57;9.23;;;20.00;99.90;;;;;;5006288;28;20034;-79
2023/06/20 06:59:20;;;;;;;14.52;10.43;;;20.20;99.90;;;;;;5026539;28;20064;-78
2023/06/20 07:01:46;;;;;;;13.48;10.48;;;20.20;99.90;;;;;;5014629;28;20055;-76
2023/06/20 07:04:12;;;;;;;11.10;9.20;;;20.30;99.90;;;;;;5028826;28;20108;-78
2023/06/20 07:06:38;;;;;;;11.38;9.73;;;20.40;99.90;;;;;;5023457;28;20572;-78
2023/06/20 07:09:04;;;;;;;14.80;11.13;;;20.50;99.90;;;;;;5024614;28;20108;-77
2023/06/20 07:11:29;;;;;;;12.20;9.80;;;20.60;99.90;;;;;;5040870;28;20045;-78
2023/06/20 07:13:55;;;;;;;12.57;9.93;;;20.60;99.90;;;;;;5025437;28;20033;-80
2023/06/20 07:16:20;;;;;;;13.77;10.57;;;20.70;99.90;;;;;;5024412;28;20145;-79
2023/06/20 07:18:46;;;;;;;13.68;10.13;;;20.90;99.90;;;;;;5023984;28;20050;-76
2023/06/20 07:21:11;;;;;;;13.32;10.25;;;21.00;99.90;;;;;;5034193;28;20121;-79
2023/06/20 07:23:37;;;;;;;13.32;10.00;;;21.10;99.90;;;;;;5018669;28;20034;-78
2023/06/20 07:26:03;;;;;;;14.95;10.23;;;21.10;99.90;;;;;;5041329;28;20673;-78
2023/06/20 07:28:29;;;;;;;14.88;10.85;;;21.20;99.90;;;;;;5012017;28;20041;-79
2023/06/20 07:30:55;;;;;;;12.82;9.63;;;21.20;99.90;;;;;;5025144;28;20048;-75
2023/06/20 07:33:20;;;;;;;11.93;9.52;;;21.20;99.90;;;;;;5024306;28;20030;-77
2023/06/20 07:35:46;;;;;;;13.35;9.48;;;21.20;99.90;;;;;;5034038;28;20049;-78
2023/06/20 07:38:12;;;;;;;13.05;8.93;;;21.20;99.90;;;;;;5022642;28;20030;-79
2023/06/20 07:40:40;;;;;;;14.88;10.25;;;21.30;99.90;;;;;;5025542;28;20040;-79
2023/06/20 07:43:06;;;;;;;10.73;9.60;;;21.40;99.90;;;;;;5038072;28;20120;-79
2023/06/20 07:45:31;;;;;;;11.15;9.95;;;21.50;99.90;;;;;;5018742;28;20046;-78
2023/06/20 07:47:57;;;;;;;13.80;9.63;;;21.60;99.90;;;;;;5020509;28;20583;-78
2023/06/20 07:50:22;;;;;;;12.55;9.63;;;21.70;99.90;;;;;;5013362;28;20034;-77
2023/06/20 07:52:48;;;;;;;11.55;10.25;;;21.90;99.90;;;;;;5027165;28;20037;-77
2023/06/20 07:55:14;;;;;;;12.25;9.63;;;22.10;99.90;;;;;;5009454;28;20120;-79
2023/06/20 07:57:39;;;;;;;11.50;9.57;;;22.20;99.90;;;;;;5025190;28;20042;-77
2023/06/20 08:00:11;;;;;;;10.52;8.20;;;22.30;99.90;;;;;;5042023;28;20033;-76
2023/06/20 08:02:37;;;;;;;9.55;8.55;;;22.50;99.90;;;;;;5016305;28;20048;-79
2023/06/20 08:05:04;;;;;;;9.77;8.65;;;22.60;99.90;;;;;;5021004;28;20037;-79
2023/06/20 08:07:30;;;;;;;12.30;9.07;;;22.80;99.90;;;;;;5035600;28;20606;-76
2023/06/20 08:09:56;;;;;;;12.18;8.73;;;23.00;99.90;;;;;;5016412;28;20044;-78
2023/06/20 08:12:23;;;;;;;14.07;10.27;;;23.10;99.90;;;;;;5039580;28;20049;-75
2023/06/20 08:14:51;;;;;;;10.93;9.40;;;23.20;99.90;;;;;;5021576;28;20068;-75
2023/06/20 08:17:16;;;;;;;10.80;8.88;;;23.20;99.90;;;;;;5018466;28;20068;-78
2023/06/20 08:19:42;;;;;;;11.02;8.57;;;23.20;99.90;;;;;;5039538;28;20066;-78
2023/06/20 08:22:07;;;;;;;11.10;9.50;;;23.30;99.90;;;;;;5020281;28;20516;-77
2023/06/20 08:24:33;;;;;;;12.45;9.60;;;23.40;99.90;;;;;;5041982;28;20052;-78
2023/06/20 08:26:59;;;;;;;10.63;9.50;;;23.50;99.90;;;;;;5023133;28;20096;-76
2023/06/20 08:29:24;;;;;;;11.88;8.80;;;23.50;99.90;;;;;;5025955;28;20120;-78
2023/06/20 08:31:50;;;;;;;14.23;9.85;;;23.50;99.90;;;;;;5039213;28;20128;-77
2023/06/20 08:34:15;;;;;;;10.32;9.02;;;23.50;99.90;;;;;;5026512;28;20041;-78
2023/06/20 08:36:43;;;;;;;10.57;8.77;;;23.50;99.90;;;;;;5023976;28;20120;-78
2023/06/20 08:39:09;;;;;;;10.98;8.57;;;23.50;99.90;;;;;;5020287;28;20493;-77
2023/06/20 08:41:34;;;;;;;12.63;9.05;;;23.60;99.90;;;;;;5021402;28;20103;-77
2023/06/20 08:44:00;;;;;;;10.45;8.30;;;23.60;99.90;;;;;;5030351;28;20041;-78
2023/06/20 08:46:26;;;;;;;11.73;9.82;;;23.70;99.90;;;;;;5033168;28;20486;-78
2023/06/20 08:48:52;;;;;;;11.77;8.98;;;23.50;99.90;;;;;;5030375;28;20033;-78
2023/06/20 08:51:20;;;;;;;9.13;7.93;;;23.40;99.90;;;;;;5029506;28;20033;-78
2023/06/20 08:53:46;;;;;;;9.30;8.23;;;23.20;99.90;;;;;;5038731;28;20077;-79
2023/06/20 08:56:17;;;;;;;10.68;9.55;;;23.30;99.90;;;;;;5025745;28;20063;-78
2023/06/20 08:58:43;;;;;;;10.85;8.45;;;23.30;99.90;;;;;;5023303;28;20067;-82
2023/06/20 09:01:08;;;;;;;10.85;8.70;;;23.50;99.90;;;;;;5011963;28;20451;-79
2023/06/20 09:03:35;;;;;;;9.45;8.55;;;23.60;99.90;;;;;;5023252;28;20037;-78
2023/06/20 09:06:01;;;;;;;9.70;8.15;;;23.90;99.90;;;;;;5020870;28;20030;-77
2023/06/20 09:08:35;;;;;;;10.50;8.73;;;24.20;99.90;;;;;;5026261;28;20037;-74
2023/06/20 09:11:08;;;;;;;10.30;8.30;;;24.40;99.90;;;;;;5031296;28;20038;-77
2023/06/20 09:13:34;;;;;;;9.20;8.18;;;24.60;99.90;;;;;;5031446;28;20045;-78
2023/06/20 09:16:10;;;;;;;10.48;8.32;;;24.80;99.90;;;;;;5031573;28;20411;-73
2023/06/20 09:18:37;;;;;;;8.88;7.75;;;25.00;99.90;;;;;;5007898;28;20471;-78
2023/06/20 09:21:03;;;;;;;9.43;7.93;;;25.00;99.90;;;;;;5025036;28;20033;-78
2023/06/20 09:23:30;;;;;;;8.80;7.90;;;25.10;99.90;;;;;;5026829;28;20026;-80
2023/06/20 09:26:16;;;;;;;9.70;8.70;;;25.30;99.90;;;;;;5028170;28;20041;-78
2023/06/20 09:28:42;;;;;;;9.88;8.50;;;25.60;99.90;;;;;;5031016;28;20072;-77
2023/06/20 09:31:08;;;;;;;8.90;6.78;;;25.60;99.90;;;;;;5028970;28;20565;-78
2023/06/20 09:33:37;;;;;;;9.52;7.70;;;25.60;99.90;;;;;;5026244;28;20136;-76
2023/06/20 09:36:17;;;;;;;7.68;6.88;;;25.80;99.90;;;;;;5021191;28;20099;-77
2023/06/20 09:38:44;;;;;;;7.80;7.00;;;25.90;99.90;;;;;;5031811;28;20034;-80
2023/06/20 09:41:15;;;;;;;9.88;7.47;;;26.10;99.90;;;;;;5031251;28;20029;-78
2023/06/20 09:43:41;;;;;;;9.93;7.03;;;26.10;99.90;;;;;;5026920;28;20444;-78
2023/06/20 09:46:07;;;;;;;7.95;6.90;;;26.20;99.90;;;;;;5032135;28;20030;-75
2023/06/20 09:48:33;;;;;;;8.10;6.80;;;26.40;99.90;;;;;;5032118;28;20088;-79
2023/06/20 09:51:00;;;;;;;8.73;7.28;;;26.60;99.90;;;;;;5048239;28;20496;-77
2023/06/20 09:53:28;;;;;;;9.32;6.90;;;26.80;99.90;;;;;;5021496;28;20037;-78
2023/06/20 09:55:56;;;;;;;7.45;6.00;;;26.90;99.90;;;;;;5027214;28;20548;-79
2023/06/20 09:58:25;;;;;;;6.78;5.80;;;27.00;99.90;;;;;;5022957;28;20057;-78
2023/06/20 10:00:51;;;;;;;10.02;7.10;;;27.00;99.90;;;;;;5030070;28;20397;-78
2023/06/20 10:03:18;;;;;;;8.98;6.47;;;27.00;99.90;;;;;;5022641;28;20575;-77
2023/06/20 10:05:46;;;;;;;7.53;6.40;;;27.00;99.90;;;;;;5024723;28;20190;-74
2023/06/20 10:08:12;;;;;;;8.10;6.72;;;27.00;99.90;;;;;;5027198;28;20040;-79
2023/06/20 10:10:38;;;;;;;7.82;6.35;;;26.90;99.90;;;;;;5021890;28;20135;-77
2023/06/20 10:13:04;;;;;;;8.20;6.20;;;26.90;99.90;;;;;;5031198;28;20174;-77
2023/06/20 10:15:30;;;;;;;8.30;6.93;;;27.00;99.90;;;;;;5023548;28;20831;-77
2023/06/20 10:17:55;;;;;;;9.05;6.63;;;27.10;99.90;;;;;;5024920;28;20132;-78
2023/06/20 10:20:31;;;;;;;11.05;7.10;;;27.20;99.90;;;;;;5019133;28;21501;-79
2023/06/20 10:22:58;;;;;;;7.70;6.72;;;27.20;99.90;;;;;;5020073;28;20045;-77
2023/06/20 10:25:25;;;;;;;9.27;6.70;;;27.20;99.90;;;;;;5031167;28;20416;-79
2023/06/20 10:28:02;;;;;;;7.68;6.22;;;27.30;99.90;;;;;;5030728;28;20092;-74
2023/06/20 10:30:46;;;;;;;9.77;6.32;;;27.40;99.90;;;;;;5029171;28;20041;-77
2023/06/20 10:33:12;;;;;;;7.90;5.90;;;27.50;99.90;;;;;;5021791;28;20044;-76
2023/06/20 10:35:48;;;;;;;7.25;5.40;;;27.60;99.90;;;;;;5045699;28;20504;-75
2023/06/20 10:38:14;;;;;;;6.78;5.10;;;27.60;99.90;;;;;;5023907;28;20044;-77
2023/06/20 10:40:40;;;;;;;5.25;4.60;;;27.70;99.90;;;;;;5026610;28;20417;-78
2023/06/20 10:43:07;;;;;;;7.65;5.97;;;27.80;99.90;;;;;;5020437;28;20497;-77
2023/06/20 10:45:33;;;;;;;5.78;4.80;;;27.80;99.90;;;;;;5024376;28;20405;-79
2023/06/20 10:48:01;;;;;;;7.20;4.93;;;27.80;99.90;;;;;;5044264;28;20045;-76
2023/06/20 10:50:26;;;;;;;5.95;5.30;;;27.80;99.90;;;;;;5025959;28;20068;-74
2023/06/20 10:52:52;;;;;;;7.97;4.38;;;27.90;99.90;;;;;;5029757;28;20497;-77
2023/06/20 10:55:26;;;;;;;7.57;5.35;;;27.90;99.90;;;;;;5027084;28;20049;-79
2023/06/20 10:57:53;;;;;;;6.57;4.65;;;28.00;99.90;;;;;;5026046;28;20041;-75
2023/06/20 11:00:21;;;;;;;5.43;4.93;;;28.10;99.90;;;;;;5022570;28;20069;-79
2023/06/20 11:02:55;;;;;;;5.97;5.38;;;28.20;99.90;;;;;;5020956;28;20033;-77
2023/06/20 11:05:27;;;;;;;;;;;28.20;99.90;;;;;;5020967;28;20045;-75
2023/06/20 11:08:00;;;;;;;7.20;5.20;;;28.20;99.90;;;;;;5036981;28;19917;-76
2023/06/20 11:10:28;;;;;;;6.40;5.30;;;28.30;99.90;;;;;;5021343;28;20394;-79
2023/06/20 11:12:55;;;;;;;7.63;5.55;;;28.30;99.90;;;;;;5029432;28;20076;-77
2023/06/20 11:15:34;;;;;;;7.07;5.30;;;28.30;99.90;;;;;;5026702;28;20107;-79
2023/06/20 11:18:10;;;;;;;8.15;5.75;;;28.50;99.90;;;;;;5024790;28;20065;-76
2023/06/20 11:20:39;;;;;;;7.00;5.95;;;28.50;99.90;;;;;;5039461;28;20042;-78
2023/06/20 11:23:06;;;;;;;5.50;5.00;;;28.60;99.90;;;;;;5029303;28;20033;-79
2023/06/20 11:25:34;;;;;;;8.02;5.97;;;28.70;99.90;;;;;;5028526;28;20041;-78
2023/06/20 11:28:11;;;;;;;6.28;5.68;;;28.80;99.90;;;;;;5030716;28;20038;-80
2023/06/20 11:30:42;;;;;;;5.78;4.78;;;28.90;99.90;;;;;;5025370;28;20123;-78
2023/06/20 11:33:15;;;;;;;6.28;5.05;;;28.90;99.90;;;;;;5025176;28;20041;-75
2023/06/20 11:35:52;;;;;;;6.45;5.85;;;29.20;99.90;;;;;;5022915;28;20083;-79
2023/06/20 11:38:22;;;;;;;6.97;5.70;;;29.30;99.90;;;;;;5026035;28;20038;-76
2023/06/20 11:41:03;;;;;;;8.32;5.72;;;29.60;99.90;;;;;;5016325;28;20037;-79
2023/06/20 11:43:36;;;;;;;5.70;5.15;;;29.80;99.90;;;;;;5046978;28;20493;-78
2023/06/20 11:46:02;;;;;;;9.43;6.15;;;30.00;99.90;;;;;;5047099;28;20102;-79
2023/06/20 11:48:28;;;;;;;6.50;5.68;;;30.10;99.90;;;;;;5047485;28;20045;-77
2023/06/20 11:50:56;;;;;;;6.05;5.45;;;30.10;99.90;;;;;;5046709;28;20037;-78
2023/06/20 11:53:33;;;;;;;5.60;5.10;;;30.20;99.90;;;;;;5031438;28;20450;-78
2023/06/20 11:56:02;;;;;;;6.28;5.20;;;30.20;99.90;;;;;;5047219;28;20042;-77
2023/06/20 11:58:29;;;;;;;5.88;5.28;;;30.20;99.90;;;;;;5031345;28;20053;-80
2023/06/20 12:01:20;;;;;;;7.68;5.20;;;30.30;99.90;;;;;;5047075;28;20037;-77
2023/06/20 12:04:01;;;;;;;5.43;4.57;;;30.40;99.90;;;;;;5027828;28;20041;-80
2023/06/20 12:06:29;;;;;;;5.30;4.80;;;30.20;99.90;;;;;;5047558;28;20553;-80
2023/06/20 12:09:00;;;;;;;5.07;4.63;;;29.80;99.90;;;;;;5031256;28;20053;-78
2023/06/20 12:11:26;;;;;;;5.55;4.97;;;29.60;99.90;;;;;;5028312;28;20047;-79
2023/06/20 12:13:52;;;;;;;5.22;4.65;;;29.90;99.90;;;;;;5030184;28;20046;-81
2023/06/20 12:16:19;;;;;;;5.45;4.95;;;29.70;99.90;;;;;;5046449;28;20114;-81
2023/06/20 12:18:46;;;;;;;7.57;4.72;;;29.60;99.90;;;;;;5034303;28;20083;-80
2023/06/20 12:21:11;;;;;;;5.72;4.82;;;30.00;99.90;;;;;;5050895;28;20046;-80
2023/06/20 12:23:37;;;;;;;6.63;4.88;;;30.20;99.90;;;;;;5030636;28;20121;-79
2023/06/20 12:26:02;;;;;;;6.25;4.90;;;30.40;99.90;;;;;;5032709;28;20041;-79
2023/06/20 12:28:28;;;;;;;5.47;4.35;;;30.40;99.90;;;;;;5033008;28;20627;-79
2023/06/20 12:30:54;;;;;;;7.28;4.30;;;30.20;99.90;;;;;;5032914;28;20044;-79
2023/06/20 12:33:19;;;;;;;5.93;4.20;;;29.90;99.90;;;;;;5025117;28;20520;-81
2023/06/20 12:35:45;;;;;;;5.68;4.50;;;29.80;99.90;;;;;;5031269;28;20045;-80
2023/06/20 12:38:11;;;;;;;4.20;3.80;;;30.00;99.90;;;;;;5030506;28;20457;-79
2023/06/20 12:40:36;;;;;;;6.68;4.00;;;30.10;99.90;;;;;;5020608;28;20045;-80